Time;durP1;ratioP1;P1;durP2;ratioP2;P2;SDS_P1;SDS_P2;PMS_P1;PMS_P2;Temp;Humidity;BMP_temperature;BMP_pressure;BME280_temperature;BME280_humidity;BME280_pressure;Samples;Min_cycle;Max_cycle;Signal;HPM_P1;HPM_P2
2023/12/04 00:00:02;;;;;;;39.28;20.05;;;;;;;;;;2074532;28;20048;-78
2023/12/04 00:01:24;;;;;;;;;;;;;;;;;;2075321;28;20072;-78
2023/12/04 00:02:45;;;;;;;34.55;20.35;;;;;;;;;;2076304;28;19916;-78
2023/12/04 00:04:05;;;;;;;40.80;21.17;;;;;;;;;;2077425;28;20037;-78
2023/12/04 00:05:26;;;;;;;44.15;20.25;;;;;;;;;;2078100;28;20354;-78
2023/12/04 00:06:47;;;;;;;44.08;21.42;;;;;;;;;;2077980;28;20091;-78
2023/12/04 00:08:08;;;;;;;34.17;19.40;;;;;;;;;;2077569;28;20029;-78
2023/12/04 00:09:30;;;;;;;40.72;20.83;;;;;;;;;;2075645;28;20763;-76
2023/12/04 00:10:51;;;;;;;40.13;21.42;;;;;;;;;;2076403;28;20099;-76
2023/12/04 00:12:12;;;;;;;42.60;21.10;;;;;;;;;;2077486;28;20064;-77
2023/12/04 00:13:34;;;;;;;40.97;19.73;;;;;;;;;;2076597;28;20029;-76
2023/12/04 00:14:55;;;;;;;41.58;21.02;;;;;;;;;;2075749;28;20592;-76
2023/12/04 00:16:16;;;;;;;47.55;22.27;;;;;;;;;;2072330;28;20080;-76
2023/12/04 00:17:40;;;;;;;45.38;21.10;;;;;;;;;;2078933;28;20072;-76
2023/12/04 00:19:01;;;;;;;43.72;20.95;;;;;;;;;;2073538;28;20044;-76
2023/12/04 00:20:22;;;;;;;45.90;21.08;;;;;;;;;;2079402;28;20103;-76
2023/12/04 00:21:42;;;;;;;37.92;18.67;;;;;;;;;;2078258;28;20079;-77
2023/12/04 00:23:03;;;;;;;46.67;22.65;;;;;;;;;;2078351;28;20041;-76
2023/12/04 00:24:24;;;;;;;41.55;20.52;;;;;;;;;;2078819;28;20088;-77
2023/12/04 00:25:45;;;;;;;41.72;20.35;;;;;;;;;;2078223;28;20114;-76
2023/12/04 00:27:06;;;;;;;41.97;20.67;;;;;;;;;;2077871;28;20037;-76
2023/12/04 00:28:28;;;;;;;46.65;21.33;;;;;;;;;;2075496;28;20034;-76
2023/12/04 00:29:49;;;;;;;49.83;23.35;;;;;;;;;;2075192;28;20603;-76
2023/12/04 00:31:10;;;;;;;46.92;23.20;;;;;;;;;;2078163;28;20056;-76
2023/12/04 00:32:31;;;;;;;44.60;20.85;;;;;;;;;;2077400;28;20038;-77
2023/12/04 00:33:52;;;;;;;39.90;19.23;;;;;;;;;;2074700;28;20037;-79
2023/12/04 00:35:13;;;;;;;46.00;22.10;;;;;;;;;;2075623;28;20139;-75
2023/12/04 00:36:34;;;;;;;37.90;20.45;;;;;;;;;;2075117;28;20516;-77
2023/12/04 00:37:55;;;;;;;41.33;19.63;;;;;;;;;;2077796;28;20052;-76
2023/12/04 00:39:16;;;;;;;41.33;19.67;;;;;;;;;;2076451;28;20453;-76
2023/12/04 00:40:37;;;;;;;45.47;22.05;;;;;;;;;;2076889;28;20037;-76
2023/12/04 00:41:57;;;;;;;47.83;21.73;;;;;;;;;;2078414;28;21349;-77
2023/12/04 00:43:19;;;;;;;41.53;20.15;;;;;;;;;;2076971;28;20029;-75
2023/12/04 00:44:39;;;;;;;40.08;20.38;;;;;;;;;;2074376;28;20033;-76
2023/12/04 00:46:01;;;;;;;43.25;20.73;;;;;;;;;;2074765;28;20040;-76
2023/12/04 00:47:21;;;;;;;39.35;19.60;;;;;;;;;;2078463;28;20033;-77
2023/12/04 00:48:42;;;;;;;39.05;20.15;;;;;;;;;;2078014;28;20436;-77
2023/12/04 00:50:04;;;;;;;43.40;20.90;;;;;;;;;;2077444;28;20037;-76
2023/12/04 00:51:26;;;;;;;40.30;20.23;;;;;;;;;;2075307;28;20497;-76
2023/12/04 00:52:46;;;;;;;39.90;18.02;;;;;;;;;;2085792;28;20446;-76
2023/12/04 00:54:07;;;;;;;39.70;19.75;;;;;;;;;;2079400;28;20437;-76
2023/12/04 00:55:28;;;;;;;38.30;18.30;;;;;;;;;;2078640;28;20033;-76
2023/12/04 00:56:49;;;;;;;37.25;19.88;;;;;;;;;;2080752;28;20517;-76
2023/12/04 00:58:10;;;;;;;40.80;20.13;;;;;;;;;;2079563;28;20046;-76
2023/12/04 00:59:31;;;;;;;46.95;21.15;;;;;;;;;;2068443;28;20042;-76
2023/12/04 01:00:52;;;;;;;37.00;18.85;;;;;;;;;;2074659;28;20026;-77
2023/12/04 01:02:13;;;;;;;41.00;19.27;;;;;;;;;;2076849;28;20411;-76
2023/12/04 01:03:34;;;;;;;44.58;21.60;;;;;;;;;;2077068;28;20033;-76
2023/12/04 01:04:54;;;;;;;42.45;19.33;;;;;;;;;;2080989;28;20033;-76
2023/12/04 01:06:25;;;;;;;38.78;20.15;;;;;;;;;;2080850;28;20031;-76
2023/12/04 01:07:46;;;;;;;34.42;19.45;;;;;;;;;;2080586;28;20556;-76
2023/12/04 01:09:06;;;;;;;38.00;18.60;;;;;;;;;;2079323;28;20045;-76
2023/12/04 01:10:27;;;;;;;40.20;18.90;;;;;;;;;;2082257;28;20033;-76
2023/12/04 01:11:48;;;;;;;38.00;18.40;;;;;;;;;;2078973;28;20385;-75
2023/12/04 01:13:09;;;;;;;47.08;21.58;;;;;;;;;;2077609;28;20082;-76
2023/12/04 01:14:30;;;;;;;42.22;19.08;;;;;;;;;;2070123;28;20026;-76
2023/12/04 01:15:51;;;;;;;40.70;18.55;;;;;;;;;;2079956;28;20029;-76
2023/12/04 01:17:12;;;;;;;35.22;19.15;;;;;;;;;;2077504;28;20037;-76
2023/12/04 01:18:33;;;;;;;34.65;17.70;;;;;;;;;;2079102;28;20033;-76
2023/12/04 01:19:53;;;;;;;40.40;18.98;;;;;;;;;;2072596;28;20050;-76
2023/12/04 01:21:14;;;;;;;38.08;20.15;;;;;;;;;;2073270;28;20074;-76
2023/12/04 01:22:35;;;;;;;44.80;20.50;;;;;;;;;;2071373;28;20056;-75
2023/12/04 01:23:56;;;;;;;44.97;20.77;;;;;;;;;;2071475;28;20030;-75
2023/12/04 01:25:18;;;;;;;43.00;18.85;;;;;;;;;;2070433;28;20080;-75
2023/12/04 01:26:39;;;;;;;36.88;19.27;;;;;;;;;;2076259;28;20428;-76
2023/12/04 01:27:59;;;;;;;36.85;20.00;;;;;;;;;;2072875;28;20048;-75
2023/12/04 01:29:20;;;;;;;32.55;17.98;;;;;;;;;;2070120;28;20042;-76
2023/12/04 01:30:41;;;;;;;37.15;17.73;;;;;;;;;;2069037;28;20108;-75
2023/12/04 01:32:02;;;;;;;40.30;19.40;;;;;;;;;;2071395;28;20084;-76
2023/12/04 01:33:23;;;;;;;35.97;18.65;;;;;;;;;;2068588;28;20038;-76
2023/12/04 01:34:44;;;;;;;39.13;19.23;;;;;;;;;;2071596;28;20398;-76
2023/12/04 01:36:05;;;;;;;33.78;17.83;;;;;;;;;;2066262;28;20038;-76
2023/12/04 01:37:26;;;;;;;36.72;18.65;;;;;;;;;;2070693;28;20057;-76
2023/12/04 01:38:47;;;;;;;42.10;20.20;;;;;;;;;;2076798;28;20029;-76
2023/12/04 01:40:08;;;;;;;38.72;20.70;;;;;;;;;;2068319;28;20034;-75
2023/12/04 01:41:29;;;;;;;38.28;18.77;;;;;;;;;;2065148;28;20038;-76
2023/12/04 01:42:50;;;;;;;36.38;18.02;;;;;;;;;;2066484;28;20084;-76
2023/12/04 01:44:11;;;;;;;34.70;19.30;;;;;;;;;;2071646;28;20069;-76
2023/12/04 01:45:32;;;;;;;37.50;18.15;;;;;;;;;;2070916;28;20046;-76
2023/12/04 01:46:53;;;;;;;40.47;18.52;;;;;;;;;;2070875;28;20084;-75
2023/12/04 01:48:14;;;;;;;38.75;19.70;;;;;;;;;;2070473;28;20472;-75
2023/12/04 01:49:35;;;;;;;37.38;18.73;;;;;;;;;;2070004;28;20046;-76
2023/12/04 01:50:57;;;;;;;40.72;20.63;;;;;;;;;;2070219;28;20100;-76
2023/12/04 01:52:18;;;;;;;37.53;18.75;;;;;;;;;;2072135;28;20421;-76
2023/12/04 01:53:40;;;;;;;34.67;17.10;;;;;;;;;;2065464;28;20038;-76
2023/12/04 01:55:01;;;;;;;33.78;17.35;;;;;;;;;;2070992;28;20485;-74
2023/12/04 01:56:22;;;;;;;29.65;16.95;;;;;;;;;;2073348;28;20026;-76
2023/12/04 01:57:43;;;;;;;37.00;19.25;;;;;;;;;;2069849;28;20030;-76
2023/12/04 01:59:04;;;;;;;35.08;17.13;;;;;;;;;;2071394;28;20038;-76
2023/12/04 02:00:25;;;;;;;38.03;19.05;;;;;;;;;;2073835;28;20037;-76
2023/12/04 02:01:46;;;;;;;39.63;19.55;;;;;;;;;;2073164;28;20412;-76
2023/12/04 02:03:07;;;;;;;32.63;17.63;;;;;;;;;;2073365;28;20030;-76
2023/12/04 02:04:30;;;;;;;36.55;17.88;;;;;;;;;;2073565;28;20029;-77
2023/12/04 02:05:52;;;;;;;33.65;17.65;;;;;;;;;;2064686;28;20038;-76
2023/12/04 02:07:13;;;;;;;36.45;18.90;;;;;;;;;;2072907;28;20038;-76
2023/12/04 02:08:35;;;;;;;36.00;17.42;;;;;;;;;;2073634;28;20473;-76
2023/12/04 02:09:56;;;;;;;32.80;17.10;;;;;;;;;;2071771;28;20784;-76
2023/12/04 02:11:16;;;;;;;40.30;19.48;;;;;;;;;;2072440;28;20038;-75
2023/12/04 02:12:37;;;;;;;33.67;16.85;;;;;;;;;;2078209;28;20034;-76
2023/12/04 02:13:58;;;;;;;33.38;17.80;;;;;;;;;;2073809;28;20500;-76
2023/12/04 02:15:19;;;;;;;37.17;18.83;;;;;;;;;;2073054;28;20034;-76
2023/12/04 02:16:41;;;;;;;34.75;18.40;;;;;;;;;;2073171;28;20030;-76
2023/12/04 02:18:03;;;;;;;33.67;17.67;;;;;;;;;;2073041;28;20030;-76
2023/12/04 02:19:24;;;;;;;39.10;19.13;;;;;;;;;;2078119;28;20052;-77
2023/12/04 02:20:45;;;;;;;27.50;16.35;;;;;;;;;;2080501;28;20034;-75
2023/12/04 02:22:06;;;;;;;37.30;16.90;;;;;;;;;;2080137;28;20087;-76
2023/12/04 02:23:28;;;;;;;37.20;19.90;;;;;;;;;;2081391;28;20110;-76
2023/12/04 02:24:49;;;;;;;29.23;17.70;;;;;;;;;;2087070;28;20321;-77
2023/12/04 02:26:13;;;;;;;35.22;19.02;;;;;;;;;;2079023;28;20034;-76
2023/12/04 02:27:38;;;;;;;34.17;19.98;;;;;;;;;;2082989;28;20122;-76
2023/12/04 02:29:00;;;;;;;38.33;19.70;;;;;;;;;;2084625;28;20037;-75
2023/12/04 02:30:23;;;;;;;34.65;18.60;;;;;;;;;;2076738;28;20048;-76
2023/12/04 02:31:43;;;;;;;;;;;;;;;;;;2085488;28;21286;-76
2023/12/04 02:33:05;;;;;;;34.88;18.58;;;;;;;;;;2086270;28;19974;-76
2023/12/04 02:34:27;;;;;;;41.17;20.38;;;;;;;;;;2077745;28;20095;-76
2023/12/04 02:35:48;;;;;;;;;;;;;;;;;;2072699;28;20401;-76
2023/12/04 02:37:09;;;;;;;33.97;17.02;;;;;;;;;;2084451;28;19912;-76
2023/12/04 02:38:30;;;;;;;37.92;19.80;;;;;;;;;;2078009;28;20033;-75
2023/12/04 02:39:54;;;;;;;30.27;17.08;;;;;;;;;;2075955;28;20389;-76
2023/12/04 02:41:17;;;;;;;35.40;17.45;;;;;;;;;;2077908;28;20049;-75
2023/12/04 02:42:38;;;;;;;31.45;17.58;;;;;;;;;;2084173;28;20473;-76
2023/12/04 02:43:59;;;;;;;31.52;18.00;;;;;;;;;;2075349;28;20429;-76
2023/12/04 02:45:20;;;;;;;32.53;17.48;;;;;;;;;;2082626;28;20026;-75
2023/12/04 02:46:41;;;;;;;31.17;18.02;;;;;;;;;;2078746;28;20103;-76
2023/12/04 02:48:02;;;;;;;34.83;18.60;;;;;;;;;;2083231;28;20516;-76
2023/12/04 02:49:24;;;;;;;35.30;18.58;;;;;;;;;;2078472;28;20185;-76
2023/12/04 02:50:45;;;;;;;32.95;18.02;;;;;;;;;;2081320;28;20492;-75
2023/12/04 02:52:06;;;;;;;33.70;16.90;;;;;;;;;;2076876;28;20076;-76
2023/12/04 02:53:27;;;;;;;29.42;17.27;;;;;;;;;;2083891;28;20033;-79
2023/12/04 02:54:48;;;;;;;30.10;16.42;;;;;;;;;;2086512;28;20025;-76
2023/12/04 02:56:09;;;;;;;29.05;16.77;;;;;;;;;;2074105;28;20444;-76
2023/12/04 02:57:30;;;;;;;33.35;18.10;;;;;;;;;;2074819;28;20025;-75
2023/12/04 02:58:51;;;;;;;36.53;18.65;;;;;;;;;;2069922;28;20046;-76
2023/12/04 03:00:12;;;;;;;31.33;17.73;;;;;;;;;;2079312;28;20106;-76
2023/12/04 03:01:33;;;;;;;38.47;18.20;;;;;;;;;;2085533;28;20075;-76
2023/12/04 03:02:54;;;;;;;30.88;17.05;;;;;;;;;;2078602;28;20620;-76
2023/12/04 03:04:15;;;;;;;28.42;16.23;;;;;;;;;;2084097;28;20098;-76
2023/12/04 03:05:36;;;;;;;30.70;17.63;;;;;;;;;;2084127;28;20107;-76
2023/12/04 03:06:57;;;;;;;35.65;17.98;;;;;;;;;;2079467;28;20394;-76
2023/12/04 03:08:18;;;;;;;29.85;15.93;;;;;;;;;;2083028;28;20033;-76
2023/12/04 03:09:39;;;;;;;34.53;17.65;;;;;;;;;;2075075;28;20579;-76
2023/12/04 03:11:01;;;;;;;27.65;16.35;;;;;;;;;;2081730;28;20029;-76
2023/12/04 03:12:22;;;;;;;34.30;16.80;;;;;;;;;;2074957;28;20038;-76
2023/12/04 03:13:42;;;;;;;33.53;17.15;;;;;;;;;;2083572;28;20421;-76
2023/12/04 03:15:05;;;;;;;32.75;17.67;;;;;;;;;;2075637;28;20034;-76
2023/12/04 03:16:25;;;;;;;;;;;;;;;;;;2081842;28;20422;-76
2023/12/04 03:17:47;;;;;;;29.80;15.68;;;;;;;;;;2085293;28;19916;-75
2023/12/04 03:19:07;;;;;;;34.85;18.27;;;;;;;;;;2086630;28;20036;-76
2023/12/04 03:20:28;;;;;;;27.73;16.67;;;;;;;;;;2085417;28;20037;-75
2023/12/04 03:21:49;;;;;;;31.17;16.83;;;;;;;;;;2087496;28;20075;-75
2023/12/04 03:23:10;;;;;;;33.92;17.13;;;;;;;;;;2085475;28;20547;-76
2023/12/04 03:24:31;;;;;;;32.05;17.40;;;;;;;;;;2085719;28;20033;-76
2023/12/04 03:25:52;;;;;;;28.38;17.10;;;;;;;;;;2077632;28;20057;-76
2023/12/04 03:27:13;;;;;;;31.80;16.85;;;;;;;;;;2083455;28;20025;-76
2023/12/04 03:28:34;;;;;;;35.42;18.67;;;;;;;;;;2076298;28;20067;-76
2023/12/04 03:29:55;;;;;;;29.73;15.35;;;;;;;;;;2074096;28;20042;-75
2023/12/04 03:31:16;;;;;;;31.00;17.48;;;;;;;;;;2076617;28;20034;-77
2023/12/04 03:32:36;;;;;;;28.73;16.20;;;;;;;;;;2084003;28;20083;-78
2023/12/04 03:33:57;;;;;;;31.55;17.45;;;;;;;;;;2085422;28;20037;-78
2023/12/04 03:35:18;;;;;;;31.15;16.95;;;;;;;;;;2083738;28;20056;-78
2023/12/04 03:36:39;;;;;;;31.63;17.15;;;;;;;;;;2088427;28;20029;-78
2023/12/04 03:38:00;;;;;;;28.77;15.93;;;;;;;;;;2078560;28;20574;-78
2023/12/04 03:39:24;;;;;;;27.67;15.02;;;;;;;;;;2078121;28;20037;-77
2023/12/04 03:40:45;;;;;;;28.40;16.13;;;;;;;;;;2085278;28;20033;-77
2023/12/04 03:42:05;;;;;;;32.90;17.88;;;;;;;;;;2082792;28;20052;-78
2023/12/04 03:43:26;;;;;;;28.70;15.68;;;;;;;;;;2078544;28;20029;-77
2023/12/04 03:44:47;;;;;;;30.45;17.52;;;;;;;;;;2080346;28;20041;-77
2023/12/04 03:46:08;;;;;;;30.63;15.80;;;;;;;;;;2076844;28;20029;-78
2023/12/04 03:47:29;;;;;;;29.40;15.73;;;;;;;;;;2080224;28;20033;-78
2023/12/04 03:48:50;;;;;;;26.05;16.08;;;;;;;;;;2072556;28;20105;-78
2023/12/04 03:50:11;;;;;;;29.48;16.17;;;;;;;;;;2086630;28;20044;-77
2023/12/04 03:51:32;;;;;;;28.85;16.75;;;;;;;;;;2080584;28;20037;-78
2023/12/04 03:52:53;;;;;;;30.98;17.30;;;;;;;;;;2078676;28;20041;-79
2023/12/04 03:54:14;;;;;;;30.85;17.58;;;;;;;;;;2077739;28;20037;-78
2023/12/04 03:55:34;;;;;;;31.58;16.90;;;;;;;;;;2078611;28;20044;-78
2023/12/04 03:56:55;;;;;;;32.60;18.55;;;;;;;;;;2076464;28;20121;-78
2023/12/04 03:58:16;;;;;;;28.15;17.42;;;;;;;;;;2078016;28;20030;-78
2023/12/04 03:59:37;;;;;;;26.05;17.27;;;;;;;;;;2085192;28;20029;-78
2023/12/04 04:00:58;;;;;;;32.90;17.98;;;;;;;;;;2088599;28;20400;-79
2023/12/04 04:02:19;;;;;;;30.60;16.60;;;;;;;;;;2079834;28;20025;-78
2023/12/04 04:03:40;;;;;;;34.45;17.40;;;;;;;;;;2080301;28;20033;-79
2023/12/04 04:05:00;;;;;;;33.85;17.52;;;;;;;;;;2080324;28;20309;-78
2023/12/04 04:06:22;;;;;;;28.50;16.98;;;;;;;;;;2086985;28;20388;-79
2023/12/04 04:07:43;;;;;;;32.70;17.00;;;;;;;;;;2088485;28;20109;-78
2023/12/04 04:09:04;;;;;;;29.77;16.38;;;;;;;;;;2079582;28;20427;-78
2023/12/04 04:10:25;;;;;;;29.15;15.00;;;;;;;;;;2076557;28;20041;-79
2023/12/04 04:11:46;;;;;;;27.40;18.00;;;;;;;;;;2078105;28;20029;-77
2023/12/04 04:13:07;;;;;;;30.55;17.83;;;;;;;;;;2082019;28;20091;-78
2023/12/04 04:14:28;;;;;;;33.20;17.05;;;;;;;;;;2085163;28;20026;-78
2023/12/04 04:15:49;;;;;;;29.85;17.73;;;;;;;;;;2079625;28;20033;-78
2023/12/04 04:17:09;;;;;;;32.70;19.05;;;;;;;;;;2082958;28;20099;-76
2023/12/04 04:18:31;;;;;;;26.77;16.05;;;;;;;;;;2077434;28;20108;-77
2023/12/04 04:19:52;;;;;;;28.52;16.48;;;;;;;;;;2082543;28;20045;-77
2023/12/04 04:21:13;;;;;;;31.83;15.80;;;;;;;;;;2078896;28;20026;-78
2023/12/04 04:22:37;;;;;;;26.77;17.00;;;;;;;;;;2083631;28;20837;-77
2023/12/04 04:23:58;;;;;;;26.45;15.10;;;;;;;;;;2086611;28;20037;-78
2023/12/04 04:25:21;;;;;;;28.98;17.15;;;;;;;;;;2085734;28;20098;-78
2023/12/04 04:26:42;;;;;;;31.88;16.15;;;;;;;;;;2084090;28;20044;-77
2023/12/04 04:28:03;;;;;;;34.47;18.15;;;;;;;;;;2086655;28;20029;-79
2023/12/04 04:29:24;;;;;;;25.48;15.40;;;;;;;;;;2085288;28;20561;-78
2023/12/04 04:30:45;;;;;;;24.05;14.80;;;;;;;;;;2084130;28;20044;-77
2023/12/04 04:32:06;;;;;;;27.65;16.30;;;;;;;;;;2086901;28;20087;-78
2023/12/04 04:33:27;;;;;;;29.05;15.70;;;;;;;;;;2079942;28;20091;-77
2023/12/04 04:34:48;;;;;;;29.17;16.67;;;;;;;;;;2082803;28;21314;-77
2023/12/04 04:36:09;;;;;;;29.65;16.67;;;;;;;;;;2075798;28;20026;-78
2023/12/04 04:37:30;;;;;;;29.70;16.17;;;;;;;;;;2081013;28;20032;-77
2023/12/04 04:38:51;;;;;;;26.73;16.90;;;;;;;;;;2085190;28;20838;-78
2023/12/04 04:40:12;;;;;;;34.33;17.45;;;;;;;;;;2076188;28;20045;-77
2023/12/04 04:41:33;;;;;;;30.42;16.55;;;;;;;;;;2083162;28;20049;-78
2023/12/04 04:42:54;;;;;;;28.10;16.40;;;;;;;;;;2087434;28;20515;-78
2023/12/04 04:44:14;;;;;;;30.95;16.77;;;;;;;;;;2076848;28;20091;-77
2023/12/04 04:45:35;;;;;;;28.42;15.80;;;;;;;;;;2075681;28;20037;-78
2023/12/04 04:46:56;;;;;;;28.80;15.57;;;;;;;;;;2081436;28;20414;-78
2023/12/04 04:48:17;;;;;;;28.42;16.13;;;;;;;;;;2074971;28;20849;-77
2023/12/04 04:49:38;;;;;;;30.35;16.73;;;;;;;;;;2083606;28;20037;-78
2023/12/04 04:50:59;;;;;;;36.15;16.90;;;;;;;;;;2078059;28;20030;-77
2023/12/04 04:52:20;;;;;;;27.50;16.42;;;;;;;;;;2073301;28;20049;-77
2023/12/04 04:53:41;;;;;;;36.10;16.80;;;;;;;;;;2082008;28;20091;-77
2023/12/04 04:55:04;;;;;;;28.45;15.68;;;;;;;;;;2086113;28;20029;-78
2023/12/04 04:56:25;;;;;;;26.88;16.40;;;;;;;;;;2083557;28;20417;-77
2023/12/04 04:57:46;;;;;;;35.38;18.67;;;;;;;;;;2076509;28;20029;-77
2023/12/04 04:59:07;;;;;;;28.63;15.55;;;;;;;;;;2076472;28;20513;-78
2023/12/04 05:00:28;;;;;;;31.10;16.08;;;;;;;;;;2076999;28;20045;-76
2023/12/04 05:01:49;;;;;;;31.13;16.60;;;;;;;;;;2074472;28;20033;-78
2023/12/04 05:03:10;;;;;;;29.88;14.48;;;;;;;;;;2075605;28;20072;-77
2023/12/04 05:04:30;;;;;;;31.77;16.75;;;;;;;;;;2081165;28;20091;-79
2023/12/04 05:05:51;;;;;;;34.60;17.60;;;;;;;;;;2079264;28;20037;-77
2023/12/04 05:07:13;;;;;;;27.70;16.02;;;;;;;;;;2074072;28;20030;-79
2023/12/04 05:08:34;;;;;;;28.10;15.43;;;;;;;;;;2076055;28;20029;-77
2023/12/04 05:09:54;;;;;;;27.88;16.42;;;;;;;;;;2074530;28;20030;-77
2023/12/04 05:11:15;;;;;;;27.92;16.98;;;;;;;;;;2074001;28;20038;-79
2023/12/04 05:12:36;;;;;;;25.58;15.38;;;;;;;;;;2082194;28;20094;-78
2023/12/04 05:13:57;;;;;;;32.35;17.42;;;;;;;;;;2083721;28;20038;-78
2023/12/04 05:15:18;;;;;;;30.73;15.98;;;;;;;;;;2084019;28;20346;-79
2023/12/04 05:16:39;;;;;;;25.95;16.38;;;;;;;;;;2084683;28;20037;-79
2023/12/04 05:18:00;;;;;;;29.58;17.33;;;;;;;;;;2077173;28;20064;-78
2023/12/04 05:19:21;;;;;;;32.15;18.35;;;;;;;;;;2074420;28;20454;-79
2023/12/04 05:20:41;;;;;;;26.13;16.13;;;;;;;;;;2073093;28;20041;-78
2023/12/04 05:22:02;;;;;;;27.63;18.08;;;;;;;;;;2073282;28;20383;-79
2023/12/04 05:23:23;;;;;;;30.23;17.63;;;;;;;;;;2073524;28;20211;-76
2023/12/04 05:24:44;;;;;;;27.50;16.20;;;;;;;;;;2074444;28;20022;-78
2023/12/04 05:26:06;;;;;;;30.23;17.35;;;;;;;;;;2077266;28;20026;-79
2023/12/04 05:27:27;;;;;;;29.00;15.93;;;;;;;;;;2079134;28;20029;-79
2023/12/04 05:28:48;;;;;;;31.25;17.25;;;;;;;;;;2077814;28;20033;-79
2023/12/04 05:30:09;;;;;;;28.17;16.50;;;;;;;;;;2076259;28;20404;-79
2023/12/04 05:31:30;;;;;;;28.35;17.40;;;;;;;;;;2083056;28;20114;-79
2023/12/04 05:32:51;;;;;;;31.83;17.35;;;;;;;;;;2076780;28;20063;-79
2023/12/04 05:34:12;;;;;;;28.27;16.98;;;;;;;;;;2070756;28;20038;-79
2023/12/04 05:35:34;;;;;;;32.00;17.05;;;;;;;;;;2081583;28;20033;-79
2023/12/04 05:36:55;;;;;;;30.10;17.40;;;;;;;;;;2084048;28;20086;-79
2023/12/04 05:38:16;;;;;;;29.90;15.38;;;;;;;;;;2077957;28;20509;-77
2023/12/04 05:39:37;;;;;;;28.83;15.10;;;;;;;;;;2084427;28;20041;-76
2023/12/04 05:40:58;;;;;;;30.52;15.95;;;;;;;;;;2083802;28;20049;-77
2023/12/04 05:42:19;;;;;;;30.40;16.02;;;;;;;;;;2087538;28;20121;-78
2023/12/04 05:43:40;;;;;;;30.23;17.42;;;;;;;;;;2083668;28;20025;-77
2023/12/04 05:45:01;;;;;;;25.02;15.38;;;;;;;;;;2073850;28;20591;-77
2023/12/04 05:46:21;;;;;;;30.85;17.20;;;;;;;;;;2084855;28;20064;-78
2023/12/04 05:47:42;;;;;;;25.67;13.88;;;;;;;;;;2079460;28;20108;-77
2023/12/04 05:49:03;;;;;;;20.83;14.52;;;;;;;;;;2083266;28;20040;-77
2023/12/04 05:50:24;;;;;;;27.23;16.23;;;;;;;;;;2078364;28;20037;-76
2023/12/04 05:51:45;;;;;;;29.63;17.20;;;;;;;;;;2069436;28;20029;-76
2023/12/04 05:53:07;;;;;;;23.55;15.13;;;;;;;;;;2086029;28;20397;-78
2023/12/04 05:54:28;;;;;;;28.75;15.90;;;;;;;;;;2074326;28;20105;-78
2023/12/04 05:55:49;;;;;;;29.83;16.33;;;;;;;;;;2082457;28;20401;-79
2023/12/04 05:57:10;;;;;;;26.58;16.10;;;;;;;;;;2084937;28;20037;-78
2023/12/04 05:58:31;;;;;;;30.08;16.02;;;;;;;;;;2081184;28;20052;-79
2023/12/04 05:59:52;;;;;;;24.50;15.18;;;;;;;;;;2087450;28;20029;-77
2023/12/04 06:01:14;;;;;;;26.42;15.52;;;;;;;;;;2080606;28;20040;-79
2023/12/04 06:02:35;;;;;;;26.95;15.93;;;;;;;;;;2080143;28;20101;-79
2023/12/04 06:03:56;;;;;;;26.10;15.18;;;;;;;;;;2080272;28;20393;-79
2023/12/04 06:05:17;;;;;;;25.20;16.13;;;;;;;;;;2078549;28;20124;-79
2023/12/04 06:06:38;;;;;;;27.90;16.08;;;;;;;;;;2079174;28;20040;-78
2023/12/04 06:07:59;;;;;;;26.08;16.10;;;;;;;;;;2087989;28;20029;-79
2023/12/04 06:09:20;;;;;;;25.92;15.65;;;;;;;;;;2081089;28;20409;-80
2023/12/04 06:10:40;;;;;;;27.85;16.85;;;;;;;;;;2078804;28;20037;-78
2023/12/04 06:12:07;;;;;;;28.70;15.07;;;;;;;;;;2089311;28;20119;-78
2023/12/04 06:13:28;;;;;;;27.17;15.13;;;;;;;;;;2085995;28;20044;-79
2023/12/04 06:14:49;;;;;;;23.30;15.55;;;;;;;;;;2078197;28;20571;-78
2023/12/04 06:16:10;;;;;;;25.95;15.20;;;;;;;;;;2075827;28;20030;-77
2023/12/04 06:17:31;;;;;;;25.70;14.80;;;;;;;;;;2075638;28;20052;-78
2023/12/04 06:18:52;;;;;;;23.48;15.45;;;;;;;;;;2073896;28;20132;-78
2023/12/04 06:20:13;;;;;;;20.48;15.70;;;;;;;;;;2082214;28;20053;-78
2023/12/04 06:21:34;;;;;;;29.27;16.10;;;;;;;;;;2078719;28;20030;-78
2023/12/04 06:22:55;;;;;;;23.30;15.27;;;;;;;;;;2075153;28;20432;-78
2023/12/04 06:24:16;;;;;;;24.40;15.80;;;;;;;;;;2081677;28;20025;-80
2023/12/04 06:25:38;;;;;;;22.10;14.82;;;;;;;;;;2078369;28;20416;-80
2023/12/04 06:26:59;;;;;;;20.23;14.25;;;;;;;;;;2078730;28;20496;-80
2023/12/04 06:28:20;;;;;;;19.88;14.45;;;;;;;;;;2075546;28;20081;-80
2023/12/04 06:29:41;;;;;;;24.17;14.80;;;;;;;;;;2076508;28;20099;-80
2023/12/04 06:31:02;;;;;;;21.83;14.05;;;;;;;;;;2076292;28;20470;-81
2023/12/04 06:32:23;;;;;;;26.00;16.38;;;;;;;;;;2075494;28;20539;-80
2023/12/04 06:33:44;;;;;;;27.27;16.05;;;;;;;;;;2074765;28;20033;-80
2023/12/04 06:35:05;;;;;;;27.65;15.07;;;;;;;;;;2077511;28;20440;-81
2023/12/04 06:36:31;;;;;;;21.33;13.60;;;;;;;;;;2082968;28;20021;-80
2023/12/04 06:37:53;;;;;;;21.83;14.57;;;;;;;;;;2079293;28;20437;-81
2023/12/04 06:39:16;;;;;;;24.00;15.80;;;;;;;;;;2076047;28;20030;-80
2023/12/04 06:40:37;;;;;;;23.02;14.85;;;;;;;;;;2075687;28;20061;-80
2023/12/04 06:41:58;;;;;;;21.13;14.52;;;;;;;;;;2078730;28;20049;-79
2023/12/04 06:43:19;;;;;;;23.10;15.10;;;;;;;;;;2078705;28;20099;-80
2023/12/04 06:44:40;;;;;;;22.70;14.77;;;;;;;;;;2079210;28;20439;-79
2023/12/04 06:46:01;;;;;;;22.48;14.52;;;;;;;;;;2076673;28;20150;-79
2023/12/04 06:47:23;;;;;;;23.23;14.00;;;;;;;;;;2076792;28;20056;-79
2023/12/04 06:48:44;;;;;;;18.83;12.38;;;;;;;;;;2077382;28;20038;-79
2023/12/04 06:50:05;;;;;;;22.63;14.80;;;;;;;;;;2075859;28;20037;-80
2023/12/04 06:51:26;;;;;;;19.83;14.45;;;;;;;;;;2077035;28;20042;-79
2023/12/04 06:52:47;;;;;;;19.85;13.55;;;;;;;;;;2084080;28;20460;-80
2023/12/04 06:54:08;;;;;;;19.23;13.35;;;;;;;;;;2078854;28;20095;-79
2023/12/04 06:55:29;;;;;;;23.10;15.32;;;;;;;;;;2074640;28;20036;-79
2023/12/04 06:56:49;;;;;;;19.67;14.25;;;;;;;;;;2076881;28;20151;-79
2023/12/04 06:58:10;;;;;;;17.80;12.85;;;;;;;;;;2082060;28;20021;-80
2023/12/04 06:59:31;;;;;;;21.08;14.05;;;;;;;;;;2079450;28;20018;-80
2023/12/04 07:00:53;;;;;;;25.05;14.93;;;;;;;;;;2087825;28;20037;-80
2023/12/04 07:02:14;;;;;;;23.35;14.35;;;;;;;;;;2077611;28;20021;-80
2023/12/04 07:03:35;;;;;;;19.77;14.73;;;;;;;;;;2077260;28;20076;-80
2023/12/04 07:04:55;;;;;;;24.17;14.52;;;;;;;;;;2080363;28;20040;-79
2023/12/04 07:06:16;;;;;;;22.98;14.43;;;;;;;;;;2081722;28;20056;-79
2023/12/04 07:07:37;;;;;;;19.63;13.23;;;;;;;;;;2077478;28;20034;-80
2023/12/04 07:08:58;;;;;;;19.80;13.75;;;;;;;;;;2075839;28;20033;-79
2023/12/04 07:10:19;;;;;;;22.90;13.98;;;;;;;;;;2083062;28;20381;-80
2023/12/04 07:11:40;;;;;;;20.77;12.93;;;;;;;;;;2078181;28;20079;-80
2023/12/04 07:13:01;;;;;;;23.25;15.45;;;;;;;;;;2082695;28;20041;-79
2023/12/04 07:14:22;;;;;;;20.52;14.45;;;;;;;;;;2087026;28;20037;-79
2023/12/04 07:15:43;;;;;;;21.63;14.20;;;;;;;;;;2086307;28;20491;-79
2023/12/04 07:17:03;;;;;;;19.17;12.82;;;;;;;;;;2079929;28;20029;-79
2023/12/04 07:18:24;;;;;;;21.50;15.00;;;;;;;;;;2078368;28;20025;-80
2023/12/04 07:19:45;;;;;;;21.25;14.32;;;;;;;;;;2086338;28;20037;-79
2023/12/04 07:21:06;;;;;;;24.27;13.57;;;;;;;;;;2078429;28;20038;-79
2023/12/04 07:22:27;;;;;;;23.77;13.98;;;;;;;;;;2084969;28;20532;-79
2023/12/04 07:23:48;;;;;;;21.20;14.13;;;;;;;;;;2086119;28;20025;-79
2023/12/04 07:25:09;;;;;;;19.67;13.20;;;;;;;;;;2077911;28;20030;-79
2023/12/04 07:26:31;;;;;;;20.15;14.20;;;;;;;;;;2075520;28;20445;-79
2023/12/04 07:27:52;;;;;;;22.17;14.95;;;;;;;;;;2077101;28;20304;-79
2023/12/04 07:29:13;;;;;;;19.60;13.50;;;;;;;;;;2078727;28;20033;-79
2023/12/04 07:30:34;;;;;;;21.25;13.68;;;;;;;;;;2076933;28;20042;-79
2023/12/04 07:31:55;;;;;;;18.92;12.35;;;;;;;;;;2072968;28;20041;-79
2023/12/04 07:33:15;;;;;;;20.08;13.98;;;;;;;;;;2078634;28;20025;-79
2023/12/04 07:34:36;;;;;;;17.55;13.05;;;;;;;;;;2083815;28;20029;-80
2023/12/04 07:35:57;;;;;;;18.08;12.60;;;;;;;;;;2079199;28;20036;-79
2023/12/04 07:37:18;;;;;;;18.83;12.77;;;;;;;;;;2080633;28;20037;-79
2023/12/04 07:38:39;;;;;;;21.42;14.27;;;;;;;;;;2083969;28;20095;-79
2023/12/04 07:40:00;;;;;;;19.65;13.45;;;;;;;;;;2087454;28;20029;-79
2023/12/04 07:41:21;;;;;;;17.63;13.45;;;;;;;;;;2083951;28;20120;-79
2023/12/04 07:42:42;;;;;;;17.52;12.63;;;;;;;;;;2077102;28;20409;-80
2023/12/04 07:44:03;;;;;;;19.75;13.45;;;;;;;;;;2087599;28;20535;-79
2023/12/04 07:45:24;;;;;;;21.15;13.75;;;;;;;;;;2088804;28;20416;-78
2023/12/04 07:46:46;;;;;;;17.13;12.73;;;;;;;;;;2087401;28;20037;-79
2023/12/04 07:48:07;;;;;;;20.33;14.05;;;;;;;;;;2095465;28;20036;-78
2023/12/04 07:49:28;;;;;;;22.27;14.80;;;;;;;;;;2088911;28;20028;-79
2023/12/04 07:50:49;;;;;;;20.88;13.55;;;;;;;;;;2086319;28;20528;-78
2023/12/04 07:52:11;;;;;;;22.88;14.27;;;;;;;;;;2088366;28;20025;-79